^^
Grace C. Lehan Memorial Weather Station Historical Data
Daily Summary for June 30, 2021 Units:  Metric    English   Both
Daily Weekly Monthly Yearly
  High: Low: Average:
Temperature: 7.1 °C 4 °C 5.8 °C
Dew Point: 6.2 °C 3.3 °C 5.1 °C
Humidity: 97% 92% 95%
Wind Speed: 1.4km/h 0km/h 0km/h
Wind Gust: 6.4km/h - -
Wind- - NE
Pressure: 1015.1 hPa 1011.7 hPa -
Precipitation: 3.05 mm    
 
 
Tabular Data for June 30, 2021
Time Temperature Dew Point Pressure Wind Wind Speed Wind Gust Humidity Rainfall Rate (Hourly) solar
00:04 4.1 °C 3.3 °C 1015.1 hPa Calm   6.4 km/h 95% 0.25 mm 0 W/m2
00:09 4.1 °C 3.3 °C 1014.8 hPa Calm     95% 0 mm 0 W/m2
00:14 4.1 °C 3.3 °C 1014.8 hPa Calm     95% 0 mm 0 W/m2
00:19 4.1 °C 3.3 °C 1014.8 hPa NE 0.2 km/h 3.2 km/h 95% 0 mm 0 W/m2
00:24 4.1 °C 3.3 °C 1014.4 hPa Calm   3.2 km/h 95% 0 mm 0 W/m2
00:29 4.1 °C 3.3 °C 1014.1 hPa Calm   3.2 km/h 95% 0.25 mm 0 W/m2
00:34 4.1 °C 3.3 °C 1014.1 hPa Calm   3.2 km/h 95.2% 0.25 mm 0 W/m2
00:39 4.1 °C 3.5 °C 1014.1 hPa Calm     96% 0.25 mm 0 W/m2
00:44 4.1 °C 3.5 °C 1014.1 hPa Calm     96% 0.25 mm 0 W/m2
00:49 4.1 °C 3.4 °C 1014.1 hPa Calm     95.5% 0.25 mm 0 W/m2
00:50 4.1 °C 3.3 °C 1014.1 hPa Calm     95% 0.25 mm 0 W/m2
01:00 4.1 °C 3.3 °C 1013.8 hPa Calm     95% 0.25 mm 0 W/m2
01:30 4.1 °C 3.3 °C 1013.8 hPa Calm   4.8 km/h 95% 0.25 mm 0 W/m2
02:00 4 °C 3.3 °C 1013.4 hPa Calm     95% 0 mm 0 W/m2
02:30 4.1 °C 3.5 °C 1013.4 hPa Calm     96% 0.25 mm 0 W/m2
03:00 4.1 °C 3.5 °C 1013.4 hPa Calm     96% 0.25 mm 0 W/m2
03:30 4.1 °C 3.5 °C 1013.1 hPa Calm   3.2 km/h 96% 0.25 mm 0 W/m2
04:09 4.1 °C 3.5 °C 1012.4 hPa Calm     96% 0.25 mm 0 W/m2
04:14 4.1 °C 3.5 °C 1012.4 hPa Calm     96% 0.25 mm 0 W/m2
04:19 4.1 °C 3.5 °C 1012.4 hPa Calm     96% 0.25 mm 0 W/m2
04:24 4.1 °C 3.6 °C 1012.4 hPa Calm     96% 0.25 mm 0 W/m2
04:29 4.2 °C 3.6 °C 1012.4 hPa Calm     96% 0.25 mm 0 W/m2
04:34 4.2 °C 3.6 °C 1012.8 hPa Calm     96% 0.25 mm 0 W/m2
04:39 4.2 °C 3.6 °C 1012.4 hPa Calm     96% 0.25 mm 0 W/m2
04:44 4.2 °C 3.6 °C 1012.8 hPa Calm     96% 0.25 mm 0 W/m2
04:49 4.2 °C 3.6 °C 1012.8 hPa Calm     96% 0.25 mm 0 W/m2
04:54 4.2 °C 3.6 °C 1012.8 hPa NE 0.2 km/h 3.2 km/h 96% 0.51 mm 0 W/m2
04:59 4.2 °C 3.6 °C 1012.8 hPa Calm   3.2 km/h 96% 0.51 mm 0 W/m2
05:04 4.2 °C 3.6 °C 1012.4 hPa Calm   3.2 km/h 96% 0.51 mm 0 W/m2
05:09 4.2 °C 3.7 °C 1012.4 hPa Calm     96% 0.25 mm 0 W/m2
05:14 4.2 °C 3.7 °C 1012.8 hPa NE 0.8 km/h 4.8 km/h 96% 0.25 mm 0 W/m2
05:19 4.2 °C 3.7 °C 1012.8 hPa Calm   4.8 km/h 96% 0.25 mm 0 W/m2
05:24 4.2 °C 3.7 °C 1012.8 hPa Calm   4.8 km/h 96% 0.25 mm 0 W/m2
05:29 4.3 °C 3.7 °C 1012.8 hPa Calm   4.8 km/h 96% 0.25 mm 0 W/m2
05:34 4.3 °C 3.7 °C 1012.8 hPa Calm   4.8 km/h 96% 0.25 mm 0 W/m2
05:39 4.3 °C 3.7 °C 1012.8 hPa Calm     96% 0.25 mm 0 W/m2
05:44 4.3 °C 3.7 °C 1012.8 hPa Calm     96% 0.25 mm 0 W/m2
05:49 4.3 °C 3.7 °C 1012.8 hPa Calm     96% 0.25 mm 0 W/m2
05:54 4.3 °C 3.7 °C 1012.8 hPa Calm     96% 0.51 mm 0 W/m2
05:59 4.3 °C 3.7 °C 1012.8 hPa Calm     96% 0.51 mm 0 W/m2
06:04 4.3 °C 3.7 °C 1012.8 hPa Calm     96% 0.51 mm 0 W/m2
06:09 4.2 °C 3.7 °C 1013.1 hPa Calm     96% 0.25 mm 0 W/m2
06:14 4.2 °C 3.7 °C 1013.1 hPa Calm     96% 0.25 mm 0 W/m2
06:19 4.2 °C 3.7 °C 1013.1 hPa Calm     96% 0.25 mm 0 W/m2
06:24 4.3 °C 3.7 °C 1013.1 hPa Calm     96% 0.25 mm 0 W/m2
06:29 4.3 °C 3.7 °C 1013.1 hPa Calm     96% 0.25 mm 0 W/m2
06:34 4.3 °C 3.7 °C 1013.1 hPa Calm     96% 0.25 mm 0 W/m2
06:39 4.3 °C 3.7 °C 1013.1 hPa Calm     96% 0.25 mm 0 W/m2
06:41 4.3 °C 3.7 °C 1013.1 hPa Calm     96% 0.25 mm 0 W/m2
07:00 4.3 °C 3.8 °C 1013.4 hPa Calm   4.8 km/h 96% 0.51 mm 0 W/m2
07:30 4.3 °C 3.8 °C 1013.4 hPa Calm     96% 0.51 mm 0 W/m2
08:09 4.4 °C 3.8 °C 1013.8 hPa NE 0.2 km/h 3.2 km/h 96% 0.76 mm 14 W/m2
08:14 4.4 °C 3.8 °C 1013.8 hPa Calm   3.2 km/h 96% 0.76 mm 14 W/m2
08:19 4.4 °C 3.8 °C 1013.8 hPa Calm   3.2 km/h 96% 0.76 mm 12 W/m2
08:24 4.4 °C 3.9 °C 1014.1 hPa Calm   3.2 km/h 96% 0.76 mm 14 W/m2
08:29 4.5 °C 3.9 °C 1014.1 hPa Calm   3.2 km/h 96% 0.76 mm 14 W/m2
08:34 4.5 °C 3.9 °C 1014.1 hPa NE 0.2 km/h 4.8 km/h 96% 0.76 mm 18 W/m2
08:39 4.5 °C 3.9 °C 1014.1 hPa Calm   4.8 km/h 96% 0.25 mm 16 W/m2
08:44 4.6 °C 4 °C 1014.1 hPa Calm   4.8 km/h 96% 0.25 mm 23 W/m2
08:49 4.6 °C 4 °C 1014.1 hPa Calm   4.8 km/h 96% 0.25 mm 23 W/m2
08:54 4.6 °C 4 °C 1014.4 hPa NE 0.8 km/h 4.8 km/h 96% 0.25 mm 21 W/m2
08:59 4.6 °C 4.1 °C 1014.4 hPa NE 0.2 km/h 4.8 km/h 96% 0.25 mm 21 W/m2
09:04 4.6 °C 4.1 °C 1014.1 hPa Calm   4.8 km/h 96% 0.25 mm 28 W/m2
09:09 4.7 °C 4.1 °C 1014.1 hPa Calm     96% 0.25 mm 28 W/m2
09:14 4.7 °C 4.1 °C 1014.1 hPa Calm     96% 0.25 mm 26 W/m2
09:19 4.7 °C 4.1 °C 1014.4 hPa Calm     96% 0.25 mm 26 W/m2
09:24 4.7 °C 4.1 °C 1014.4 hPa Calm     96% 0.25 mm 23 W/m2
09:29 4.7 °C 4.2 °C 1014.1 hPa Calm     96% 0.25 mm 25 W/m2
09:34 4.7 °C 4.2 °C 1014.1 hPa Calm     96% 0.25 mm 28 W/m2
09:39 4.7 °C 4.2 °C 1014.4 hPa Calm     96% 0.25 mm 32 W/m2
09:44 4.7 °C 4.2 °C 1014.1 hPa Calm     96% 0.25 mm 35 W/m2
09:49 4.8 °C 4.2 °C 1014.1 hPa Calm     96% 0.25 mm 33 W/m2
09:54 4.8 °C 4.2 °C 1014.4 hPa Calm     96% 0.25 mm 28 W/m2
09:59 4.8 °C 4.2 °C 1014.4 hPa Calm     96% 0.25 mm 25 W/m2
10:04 4.8 °C 4.2 °C 1014.4 hPa Calm     96% 0.25 mm 26 W/m2
10:09 4.8 °C 4.3 °C 1014.1 hPa Calm     96% 0.25 mm 32 W/m2
10:14 4.9 °C 4.3 °C 1014.1 hPa Calm     96% 0.25 mm 35 W/m2
10:19 4.9 °C 4.3 °C 1014.1 hPa Calm     96% 0.25 mm 51 W/m2
10:24 4.9 °C 4.3 °C 1013.8 hPa Calm     96% 0.25 mm 56 W/m2
10:29 4.9 °C 4.3 °C 1013.8 hPa Calm     96% 0.25 mm 53 W/m2
10:34 5 °C 4.4 °C 1013.8 hPa Calm     96% 0.25 mm 54 W/m2
10:39 5.1 °C 4.5 °C 1013.8 hPa Calm     96% 0 mm 49 W/m2
10:44 5.1 °C 4.6 °C 1013.8 hPa Calm     96% 0 mm 62 W/m2
10:49 5.1 °C 4.6 °C 1013.4 hPa Calm     96% 0 mm 62 W/m2
10:54 5.2 °C 4.6 °C 1013.4 hPa Calm     96% 0 mm 58 W/m2
10:59 5.2 °C 4.6 °C 1013.4 hPa Calm     96% 0 mm 69 W/m2
11:04 5.2 °C 4.7 °C 1013.4 hPa Calm     96% 0 mm 81 W/m2
11:09 5.3 °C 4.7 °C 1013.4 hPa Calm     96% 0 mm 74 W/m2
11:14 5.3 °C 4.7 °C 1013.4 hPa Calm     96% 0 mm 83 W/m2
11:19 5.4 °C 4.8 °C 1013.4 hPa Calm     96% 0 mm 72 W/m2
11:24 5.4 °C 4.8 °C 1013.4 hPa Calm     96% 0 mm 51 W/m2
11:29 5.4 °C 4.9 °C 1013.4 hPa Calm     96% 0 mm 51 W/m2
11:34 5.4 °C 4.9 °C 1013.4 hPa Calm     96% 0 mm 77 W/m2
11:39 5.5 °C 4.9 °C 1013.1 hPa Calm     96% 0 mm 127 W/m2
11:44 5.6 °C 5 °C 1013.1 hPa Calm     96% 0 mm 158 W/m2
11:49 5.6 °C 5.1 °C 1013.1 hPa Calm     96% 0 mm 156 W/m2
11:54 5.7 °C 5.1 °C 1013.1 hPa Calm     96% 0 mm 142 W/m2
11:59 5.8 °C 5.2 °C 1012.8 hPa Calm     96% 0 mm 174 W/m2
12:00 5.8 °C 5.2 °C 1012.8 hPa Calm     96% 0 mm 174 W/m2
12:09 6.1 °C 5.6 °C 1012.8 hPa Calm     97% 0 mm 146 W/m2
12:14 6.2 °C 5.7 °C 1012.8 hPa Calm     96.6% 0 mm 142 W/m2
12:19 6.2 °C 5.6 °C 1012.8 hPa Calm     96% 0 mm 114 W/m2
12:24 6.3 °C 5.7 °C 1012.8 hPa Calm     96% 0 mm 111 W/m2
12:29 6.3 °C 5.7 °C 1012.4 hPa Calm     96% 0 mm 127 W/m2
12:34 6.3 °C 5.8 °C 1012.8 hPa Calm     96.6% 0 mm 127 W/m2
12:39 6.4 °C 5.9 °C 1012.8 hPa Calm     96% 0 mm 132 W/m2
12:44 6.6 °C 6.1 °C 1012.4 hPa NE 1.4 km/h 6.4 km/h 96.3% 0 mm 134 W/m2
12:49 6.7 °C 6.2 °C 1012.4 hPa Calm   6.4 km/h 97% 0 mm 174 W/m2
12:54 6.8 °C 6.2 °C 1012.4 hPa Calm   6.4 km/h 96.4% 0 mm 141 W/m2
12:59 6.7 °C 6.1 °C 1012.4 hPa NE 0.3 km/h 6.4 km/h 96% 0 mm 134 W/m2
13:04 6.7 °C 6.1 °C 1012.4 hPa NE 0.2 km/h 6.4 km/h 96% 0 mm 142 W/m2
13:09 6.7 °C 6.1 °C 1012.4 hPa Calm   3.2 km/h 96% 0 mm 163 W/m2
13:14 6.6 °C 6.1 °C 1012.1 hPa NE 0.3 km/h 3.2 km/h 96% 0 mm 113 W/m2
13:19 6.7 °C 6.1 °C 1012.1 hPa Calm   3.2 km/h 96% 0 mm 109 W/m2
13:24 6.6 °C 6 °C 1012.1 hPa Calm   3.2 km/h 96% 0 mm 128 W/m2
13:29 6.6 °C 6 °C 1012.4 hPa Calm   3.2 km/h 96% 0 mm 97 W/m2
13:34 6.7 °C 5.9 °C 1012.4 hPa Calm   3.2 km/h 95.1% 0 mm 90 W/m2
13:39 6.7 °C 6.1 °C 1012.1 hPa Calm     95.9% 0 mm 81 W/m2
13:44 6.7 °C 6 °C 1012.1 hPa Calm     95.1% 0 mm 90 W/m2
13:49 6.8 °C 6 °C 1012.1 hPa Calm     95% 0 mm 100 W/m2
13:54 6.8 °C 6.1 °C 1012.1 hPa Calm     95% 0 mm 93 W/m2
13:59 6.8 °C 6.1 °C 1012.1 hPa Calm     95% 0 mm 98 W/m2
14:04 6.8 °C 6.1 °C 1012.1 hPa NE 0.3 km/h 4.8 km/h 95% 0 mm 107 W/m2
14:09 6.9 °C 6.1 °C 1012.1 hPa Calm   4.8 km/h 95% 0 mm 105 W/m2
14:14 6.9 °C 6.2 °C 1012.1 hPa Calm   4.8 km/h 95% 0 mm 109 W/m2
14:19 6.9 °C 6.1 °C 1011.7 hPa Calm   4.8 km/h 94.2% 0 mm 79 W/m2
14:24 7 °C 6.1 °C 1012.1 hPa Calm   4.8 km/h 94% 0 mm 72 W/m2
14:29 7.1 °C 6.1 °C 1012.1 hPa Calm   4.8 km/h 94% 0 mm 47 W/m2
14:34 7.1 °C 6.2 °C 1012.1 hPa Calm   4.8 km/h 94% 0 mm 42 W/m2
14:39 7.1 °C 6.2 °C 1012.1 hPa Calm     94% 0 mm 42 W/m2
14:44 7.1 °C 6.2 °C 1012.1 hPa Calm     94% 0 mm 39 W/m2
14:49 7.1 °C 6.1 °C 1012.1 hPa Calm     93.3% 0 mm 39 W/m2
14:54 7.1 °C 6.1 °C 1012.1 hPa Calm     93% 0 mm 42 W/m2
14:59 7.1 °C 6 °C 1012.1 hPa Calm     93% 0 mm 46 W/m2
15:04 7.1 °C 6 °C 1012.1 hPa Calm     93% 0 mm 40 W/m2
15:09 7.1 °C 6 °C 1012.1 hPa Calm     93% 0 mm 26 W/m2
15:14 7.1 °C 6.1 °C 1012.4 hPa Calm     93% 0 mm 21 W/m2
15:19 7.1 °C 6.1 °C 1012.1 hPa Calm     93% 0 mm 21 W/m2
15:24 7.1 °C 6.1 °C 1012.1 hPa Calm     93% 0 mm 30 W/m2
15:29 7.1 °C 6.1 °C 1012.1 hPa Calm     93% 0 mm 30 W/m2
15:34 7.1 °C 6.1 °C 1012.1 hPa Calm     93% 0 mm 25 W/m2
15:39 7.1 °C 6.1 °C 1012.1 hPa Calm     93% 0 mm 32 W/m2
15:44 7.1 °C 6.1 °C 1012.1 hPa Calm     93% 0 mm 30 W/m2
15:49 7.1 °C 6.1 °C 1012.1 hPa Calm     93% 0 mm 21 W/m2
15:54 7.1 °C 6.1 °C 1012.1 hPa Calm     93% 0 mm 14 W/m2
15:59 7.1 °C 6.1 °C 1012.1 hPa Calm     93% 0 mm 11 W/m2
16:00 7.1 °C 6.1 °C 1012.1 hPa Calm     93% 0 mm 9 W/m2
16:09 7.1 °C 6 °C 1012.1 hPa Calm     92.7% 0 mm 5 W/m2
16:14 7.1 °C 5.8 °C 1012.1 hPa Calm     92% 0 mm 5 W/m2
16:19 7.1 °C 5.8 °C 1011.7 hPa Calm     92% 0 mm 0 W/m2
16:24 7 °C 5.8 °C 1012.1 hPa Calm     92% 0 mm 0 W/m2
16:29 7 °C 5.8 °C 1011.7 hPa Calm     92% 0 mm 0 W/m2
16:34 6.9 °C 5.8 °C 1011.7 hPa Calm     92% 0 mm 0 W/m2
16:39 6.9 °C 5.8 °C 1011.7 hPa Calm     92.7% 0 mm 0 W/m2
16:44 6.9 °C 5.9 °C 1012.1 hPa Calm     93% 0 mm 0 W/m2
16:49 6.9 °C 5.8 °C 1012.1 hPa Calm     93% 0 mm 0 W/m2
16:54 6.9 °C 5.8 °C 1012.1 hPa Calm     93% 0 mm 0 W/m2
16:59 6.9 °C 5.8 °C 1012.1 hPa Calm     93% 0 mm 0 W/m2
17:04 6.9 °C 5.8 °C 1012.1 hPa Calm     93% 0 mm 0 W/m2
17:09 6.9 °C 5.8 °C 1012.1 hPa Calm     93% 0 mm 0 W/m2
17:14 6.9 °C 5.8 °C 1012.4 hPa Calm     93% 0 mm 0 W/m2
17:19 6.9 °C 5.8 °C 1012.4 hPa Calm     93% 0 mm 0 W/m2
17:24 6.9 °C 5.8 °C 1012.4 hPa Calm     93% 0 mm 0 W/m2
17:29 6.9 °C 5.8 °C 1012.1 hPa Calm     93% 0 mm 0 W/m2
17:34 6.9 °C 5.8 °C 1012.4 hPa Calm     93% 0 mm 0 W/m2
17:39 6.9 °C 5.8 °C 1012.4 hPa Calm     93% 0 mm 0 W/m2
17:44 6.9 °C 5.8 °C 1012.4 hPa Calm     93% 0 mm 0 W/m2
17:49 6.9 °C 5.8 °C 1012.8 hPa Calm     93% 0 mm 0 W/m2
17:54 6.9 °C 5.8 °C 1012.8 hPa Calm     93% 0 mm 0 W/m2
17:59 6.9 °C 5.8 °C 1012.8 hPa Calm     93% 0 mm 0 W/m2
18:04 6.9 °C 5.8 °C 1012.8 hPa Calm     93% 0 mm 0 W/m2
18:09 6.9 °C 5.8 °C 1013.1 hPa Calm     93% 0 mm 0 W/m2
18:14 6.8 °C 5.8 °C 1013.1 hPa Calm     93% 0 mm 0 W/m2
18:19 6.8 °C 5.8 °C 1013.1 hPa Calm     93% 0 mm 0 W/m2
18:24 6.8 °C 5.8 °C 1013.1 hPa Calm     93% 0 mm 0 W/m2
18:29 6.8 °C 5.8 °C 1013.1 hPa Calm     93% 0 mm 0 W/m2
18:34 6.8 °C 5.8 °C 1013.1 hPa Calm     93% 0 mm 0 W/m2
18:39 6.8 °C 5.9 °C 1013.1 hPa Calm     93.6% 0 mm 0 W/m2
18:44 6.8 °C 5.9 °C 1013.1 hPa Calm     94% 0 mm 0 W/m2
18:49 6.8 °C 5.9 °C 1013.1 hPa Calm     94% 0 mm 0 W/m2
18:54 6.8 °C 5.9 °C 1013.1 hPa Calm     94% 0 mm 0 W/m2
18:59 6.8 °C 5.9 °C 1013.1 hPa Calm     94% 0 mm 0 W/m2
19:04 6.8 °C 5.9 °C 1013.1 hPa Calm     94% 0 mm 0 W/m2
19:09 6.8 °C 5.9 °C 1013.1 hPa Calm     94% 0 mm 0 W/m2
19:14 6.8 °C 5.9 °C 1013.1 hPa Calm     94% 0 mm 0 W/m2
19:19 6.8 °C 5.9 °C 1013.1 hPa Calm     94% 0 mm 0 W/m2
19:24 6.8 °C 5.9 °C 1013.1 hPa Calm     94% 0 mm 0 W/m2
19:29 6.8 °C 5.9 °C 1013.1 hPa Calm     94% 0 mm 0 W/m2
19:34 6.7 °C 5.8 °C 1013.1 hPa Calm     94% 0 mm 0 W/m2
19:39 6.7 °C 5.8 °C 1013.1 hPa Calm     94% 0 mm 0 W/m2
19:44 6.7 °C 5.8 °C 1013.1 hPa Calm     94% 0 mm 0 W/m2
19:49 6.7 °C 5.8 °C 1013.1 hPa Calm     94% 0 mm 0 W/m2
19:54 6.7 °C 5.8 °C 1013.1 hPa Calm     94% 0 mm 0 W/m2
19:59 6.7 °C 5.8 °C 1012.8 hPa Calm     94% 0 mm 0 W/m2
20:00 6.7 °C 5.8 °C 1012.8 hPa Calm     94% 0 mm 0 W/m2
20:09 6.7 °C 5.8 °C 1012.8 hPa Calm     94% 0 mm 0 W/m2
20:14 6.7 °C 5.8 °C 1012.8 hPa Calm     94% 0 mm 0 W/m2
20:19 6.7 °C 5.8 °C 1012.8 hPa Calm     94% 0 mm 0 W/m2
20:24 6.7 °C 5.8 °C 1012.8 hPa Calm     94% 0.25 mm 0 W/m2
20:29 6.7 °C 5.8 °C 1012.8 hPa Calm     94% 0.25 mm 0 W/m2
20:34 6.7 °C 5.8 °C 1013.1 hPa Calm     94% 0.25 mm 0 W/m2
20:39 6.7 °C 5.8 °C 1013.1 hPa Calm     94% 0.25 mm 0 W/m2
20:44 6.7 °C 5.8 °C 1013.1 hPa Calm     94% 0.25 mm 0 W/m2
20:49 6.7 °C 5.8 °C 1013.1 hPa Calm     94% 0.25 mm 0 W/m2
20:54 6.7 °C 5.9 °C 1013.1 hPa Calm     94.7% 0.25 mm 0 W/m2
20:59 6.7 °C 5.9 °C 1013.1 hPa Calm     95% 0.25 mm 0 W/m2
21:04 6.6 °C 5.9 °C 1013.1 hPa Calm     95% 0.25 mm 0 W/m2
21:09 6.6 °C 5.9 °C 1013.1 hPa Calm     95% 0.25 mm 0 W/m2
21:14 6.6 °C 5.9 °C 1013.1 hPa Calm     95% 0.25 mm 0 W/m2
21:19 6.6 °C 5.8 °C 1013.1 hPa Calm     95% 0.25 mm 0 W/m2
21:24 6.6 °C 5.8 °C 1013.1 hPa Calm     95% 0.25 mm 0 W/m2
21:29 6.6 °C 5.8 °C 1013.1 hPa Calm     95% 0.25 mm 0 W/m2
21:34 6.6 °C 5.8 °C 1012.8 hPa Calm     95% 0.25 mm 0 W/m2
21:39 6.6 °C 5.8 °C 1012.8 hPa Calm     95% 0 mm 0 W/m2
21:44 6.6 °C 5.8 °C 1012.8 hPa Calm     95% 0 mm 0 W/m2
21:49 6.6 °C 5.8 °C 1012.8 hPa Calm     95% 0 mm 0 W/m2
21:54 6.6 °C 5.8 °C 1012.8 hPa Calm     95% 0 mm 0 W/m2
21:59 6.6 °C 5.8 °C 1012.8 hPa Calm     95% 0 mm 0 W/m2
22:04 6.6 °C 5.8 °C 1012.8 hPa Calm     95% 0.25 mm 0 W/m2
22:09 6.6 °C 5.8 °C 1012.8 hPa Calm     95% 0.25 mm 0 W/m2
22:14 6.6 °C 5.8 °C 1012.8 hPa Calm     95% 0.25 mm 0 W/m2
22:19 6.6 °C 5.8 °C 1012.8 hPa Calm     95% 0.25 mm 0 W/m2
22:24 6.6 °C 5.8 °C 1013.1 hPa Calm     95% 0.25 mm 0 W/m2
22:29 6.6 °C 5.8 °C 1013.1 hPa Calm     95% 0.25 mm 0 W/m2
22:34 6.6 °C 5.8 °C 1012.8 hPa Calm     95% 0.25 mm 0 W/m2
22:39 6.6 °C 5.8 °C 1013.1 hPa Calm     95% 0.51 mm 0 W/m2
22:44 6.6 °C 5.8 °C 1013.1 hPa Calm     95% 0.51 mm 0 W/m2
22:49 6.5 °C 5.8 °C 1013.1 hPa Calm     95% 0.51 mm 0 W/m2
22:54 6.5 °C 5.8 °C 1013.1 hPa Calm     95% 0.51 mm 0 W/m2
22:59 6.5 °C 5.8 °C 1013.1 hPa Calm     95% 0.51 mm 0 W/m2
23:00 6.5 °C 5.8 °C 1012.8 hPa Calm     95% 0.51 mm 0 W/m2
23:09 6.5 °C 5.8 °C 1012.8 hPa Calm     95% 0.51 mm 0 W/m2
23:14 6.5 °C 5.8 °C 1012.8 hPa Calm     95% 0.51 mm 0 W/m2
23:19 6.5 °C 5.7 °C 1012.8 hPa Calm     95% 0.51 mm 0 W/m2
23:24 6.5 °C 5.7 °C 1012.8 hPa Calm     95% 0.51 mm 0 W/m2
23:29 6.5 °C 5.7 °C 1012.8 hPa Calm     95% 0.51 mm 0 W/m2
23:34 6.4 °C 5.7 °C 1012.4 hPa Calm     95% 0.51 mm 0 W/m2
23:39 6.4 °C 5.7 °C 1012.4 hPa Calm     95% 0.25 mm 0 W/m2
23:44 6.4 °C 5.7 °C 1012.4 hPa Calm     95% 0.25 mm 0 W/m2
23:49 6.4 °C 5.7 °C 1012.4 hPa Calm     95% 0.25 mm 0 W/m2
23:54 6.4 °C 5.7 °C 1012.4 hPa Calm     95% 0.25 mm 0 W/m2
23:59 6.4 °C 5.7 °C 1012.4 hPa Calm     95% 0.25 mm 0 W/m2
Hartford County Weather
Compliments of Weather Underground - 4 mb